sensor_id;sensor_type;location;lat;lon;timestamp;temperature;humidity
73875;HTU21D;62209;47.568;7.558;2024-01-16T00:10:30;-3.56;99.70
73875;HTU21D;62209;47.568;7.558;2024-01-16T00:25:35;-4.11;99.16
73875;HTU21D;62209;47.568;7.558;2024-01-16T00:40:41;-4.17;102.07
73875;HTU21D;62209;47.568;7.558;2024-01-16T00:55:46;-4.41;101.34
73875;HTU21D;62209;47.568;7.558;2024-01-16T08:57:07;-1.54;97.68
73875;HTU21D;62209;47.568;7.558;2024-01-16T09:12:17;-0.47;95.77
73875;HTU21D;62209;47.568;7.558;2024-01-16T09:27:22;0.28;92.53
73875;HTU21D;62209;47.568;7.558;2024-01-16T09:42:28;-0.62;93.56
73875;HTU21D;62209;47.568;7.558;2024-01-16T09:57:33;-0.59;93.85
73875;HTU21D;62209;47.568;7.558;2024-01-16T10:12:43;0.73;90.98
73875;HTU21D;62209;47.568;7.558;2024-01-16T10:27:50;0.60;91.05
73875;HTU21D;62209;47.568;7.558;2024-01-16T10:43:11;1.99;88.57
73875;HTU21D;62209;47.568;7.558;2024-01-16T10:58:23;2.08;87.47
73875;HTU21D;62209;47.568;7.558;2024-01-16T11:13:29;1.57;87.22
73875;HTU21D;62209;47.568;7.558;2024-01-16T11:28:36;2.70;85.97
73875;HTU21D;62209;47.568;7.558;2024-01-16T11:43:41;2.20;87.51
73875;HTU21D;62209;47.568;7.558;2024-01-16T11:58:51;2.24;87.14
73875;HTU21D;62209;47.568;7.558;2024-01-16T12:14:13;1.83;88.24
73875;HTU21D;62209;47.568;7.558;2024-01-16T12:29:19;2.87;84.91
73875;HTU21D;62209;47.568;7.558;2024-01-16T12:44:27;3.29;84.45
73875;HTU21D;62209;47.568;7.558;2024-01-16T12:59:34;3.15;84.81
73875;HTU21D;62209;47.568;7.558;2024-01-16T13:14:39;2.11;86.99
73875;HTU21D;62209;47.568;7.558;2024-01-16T13:29:45;1.82;87.90
73875;HTU21D;62209;47.568;7.558;2024-01-16T13:44:51;2.45;86.10
73875;HTU21D;62209;47.568;7.558;2024-01-16T13:59:57;2.46;87.19
73875;HTU21D;62209;47.568;7.558;2024-01-16T14:15:03;2.78;87.04
73875;HTU21D;62209;47.568;7.558;2024-01-16T14:30:19;2.88;86.58
73875;HTU21D;62209;47.568;7.558;2024-01-16T14:45:25;2.67;85.89
73875;HTU21D;62209;47.568;7.558;2024-01-16T15:00:31;3.74;83.01
73875;HTU21D;62209;47.568;7.558;2024-01-16T15:15:37;2.75;85.70
73875;HTU21D;62209;47.568;7.558;2024-01-16T15:30:42;1.24;89.67
73875;HTU21D;62209;47.568;7.558;2024-01-16T15:45:49;0.67;91.34
73875;HTU21D;62209;47.568;7.558;2024-01-16T16:00:55;0.10;93.46
73875;HTU21D;62209;47.568;7.558;2024-01-16T16:16:01;-0.36;93.62
73875;HTU21D;62209;47.568;7.558;2024-01-16T16:31:06;-0.98;96.86
73875;HTU21D;62209;47.568;7.558;2024-01-16T16:46:14;-1.06;96.68
73875;HTU21D;62209;47.568;7.558;2024-01-16T17:01:20;-1.18;97.71
73875;HTU21D;62209;47.568;7.558;2024-01-16T17:16:25;-1.33;98.31
73875;HTU21D;62209;47.568;7.558;2024-01-16T17:31:31;-1.39;100.25
73875;HTU21D;62209;47.568;7.558;2024-01-16T17:46:37;-1.28;100.79
73875;HTU21D;62209;47.568;7.558;2024-01-16T18:01:48;-1.25;100.47
73875;HTU21D;62209;47.568;7.558;2024-01-16T18:16:54;-1.11;101.83
73875;HTU21D;62209;47.568;7.558;2024-01-16T18:31:59;-1.03;102.78
73875;HTU21D;62209;47.568;7.558;2024-01-16T18:47:07;-0.87;102.50
73875;HTU21D;62209;47.568;7.558;2024-01-16T19:02:13;-0.72;101.31
73875;HTU21D;62209;47.568;7.558;2024-01-16T19:17:24;-0.36;100.12
73875;HTU21D;62209;47.568;7.558;2024-01-16T19:32:33;-0.05;98.34
73875;HTU21D;62209;47.568;7.558;2024-01-16T19:47:39;-0.14;99.36
73875;HTU21D;62209;47.568;7.558;2024-01-16T20:02:46;-0.21;101.21
73875;HTU21D;62209;47.568;7.558;2024-01-16T20:17:53;-0.28;100.51
73875;HTU21D;62209;47.568;7.558;2024-01-16T20:33:00;-0.27;99.68
73875;HTU21D;62209;47.568;7.558;2024-01-16T20:48:06;-0.34;99.22
73875;HTU21D;62209;47.568;7.558;2024-01-16T21:03:12;-0.25;99.20
73875;HTU21D;62209;47.568;7.558;2024-01-16T21:18:21;-0.23;99.40
73875;HTU21D;62209;47.568;7.558;2024-01-16T21:33:29;-0.24;101.48
73875;HTU21D;62209;47.568;7.558;2024-01-16T21:48:35;-0.20;102.53
73875;HTU21D;62209;47.568;7.558;2024-01-16T22:03:41;-0.03;103.64
73875;HTU21D;62209;47.568;7.558;2024-01-16T22:18:47;0.09;105.98
73875;HTU21D;62209;47.568;7.558;2024-01-16T22:33:53;0.20;106.91
73875;HTU21D;62209;47.568;7.558;2024-01-16T22:48:59;0.46;105.63
73875;HTU21D;62209;47.568;7.558;2024-01-16T23:04:06;0.50;105.77
73875;HTU21D;62209;47.568;7.558;2024-01-16T23:19:11;0.65;106.78
73875;HTU21D;62209;47.568;7.558;2024-01-16T23:34:17;0.71;107.39
73875;HTU21D;62209;47.568;7.558;2024-01-16T23:49:23;0.76;106.64
